Bear Creek, North Carolina
Current Conditions -  °F | °C
As of 3:55 PM on Friday 19 Dec 2014 (Local Time) from K5W8 Reporting Station
Clear Clear  
Wind Chill: 52°   Ceiling: Unl
Heat Index: 52°   Visibility: 10mi
Dew Point: 25°   Wind: 5mph
Humidity: 35%   Direction: 320°NW
Pressure: 30.11"   Gusts: NA
Location:  35.62°N, 79.38°W
Report Text: K5W8 192055Z AUTO 32004KT 10SM CLR 11/M04 A3011 RMK AO2 T01101039
Loading
Personal Weather Stations






























Interactive Weather Map New forecast layout! Learn more

10-Day Weather Forecast

Advertisements
Track Severe Weather on mobile